Flight Track Log - Related Links

Times and Time Zones

All times are in EST time to prevent confusion due to time zone crossing. See the UAL303 flight status page for this flight to view local times or setup timezone preferences in your user account.

Time Position Orientation Groundspeed Altitude Reporting Facility
EST Latitude Longitude Course Direction KTS MPH feet Rate Location/Type
Fri 06:46:21 AM 40.6333 -73.8667 323° Northwest 191 220 3,000  Level New York TRACON
Fri 06:47:21 AM 40.5833 -73.9000 207° Southwest 243 280 5,700 2,663 Climbing New York TRACON
Fri 06:48:00 AM 40.7996 -74.0826 304° West  Level FlightAware Approximate
Fri 06:49:00 AM 40.8546 -74.1925 303° West  Level FlightAware Approximate
Fri 06:49:19 AM 40.6108 -73.7017 80° East 285 328 10,900  Level New York Center
Fri 06:50:00 AM 40.9123 -74.3001 306° West  Level FlightAware Approximate
Fri 06:50:19 AM 40.6656 -73.5944 56° Northeast 329 379 12,400  Level New York Center
Fri 06:51:00 AM 40.9720 -74.4054 323° Northwest  Level FlightAware Approximate
Fri 06:51:19 AM 40.7639 -73.5739 North 310 357 14,600  Level New York Center
Fri 06:52:19 AM 40.8539 -73.5586 North 335 386 16,400 1,200 Climbing New York Center
Fri 06:53:19 AM 40.9525 -73.6064 340° North 348 400 17,000 300 Climbing New York Center
Fri 06:54:19 AM 41.0092 -73.6831 314° West 324 373 17,000  Level New York Center
Fri 06:55:19 AM 41.0669 -73.7847 307° West 313 360 17,000 -50 Level New York Center
Fri 06:56:19 AM 41.0744 -73.8950 275° West 301 346 16,900 -50 Descending New York Center
Fri 06:57:19 AM 41.0861 -74.0086 278° West 301 346 16,900  Level New York Center
Fri 06:58:19 AM 41.0933 -74.1217 275° West 308 354 16,900  Level New York Center
Fri 06:59:19 AM 41.1025 -74.2350 276° West 314 361 16,900 50 Level New York Center
Fri 07:00:19 AM 41.1094 -74.3483 275° West 314 361 17,000 600 Climbing New York Center
Fri 07:01:19 AM 41.1183 -74.4644 276° West 314 361 18,100 1,450 Climbing New York Center
Fri 07:02:19 AM 41.1292 -74.5808 277° West 314 361 19,900 1,800 Climbing New York Center
Fri 07:03:19 AM 41.1419 -74.7053 278° West 329 379 21,700 1,800 Climbing New York Center
Fri 07:04:19 AM 41.1900 -74.8183 299° West 339 390 23,500 2,350 Climbing New York Center
Fri 07:05:19 AM 41.2403 -74.9319 301° West 346 398 26,400 2,150 Climbing New York Center
Fri 07:06:19 AM 41.2825 -75.0367 298° West 341 392 27,800 1,450 Climbing New York Center
Fri 07:07:19 AM 41.3325 -75.1447 302° West 336 387 29,300 1,339 Climbing New York Center
Fri 07:08:20 AM 41.3806 -75.2583 299° West 341 392 30,500 1,200 Climbing New York Center
Fri 07:09:19 AM 41.4283 -75.3694 300° West 346 398 31,700 1,765 Climbing New York Center
Fri 07:10:19 AM 41.4739 -75.4806 299° West 341 392 34,000 1,537 Climbing New York Center
Fri 07:11:20 AM 41.5069 -75.5908 292° West 333 383 34,800 850 Climbing New York Center
Fri 07:12:19 AM 41.5394 -75.7097 290° West 327 376 35,700 605 Climbing New York Center
Fri 07:13:19 AM 41.5722 -75.8231 291° West 334 384 36,000 150 Climbing New York Center
Fri 07:14:19 AM 41.6047 -75.9392 291° West 334 384 36,000  Level New York Center
Fri 07:15:19 AM 41.6336 -76.0414 291° West 334 384 36,000  Level New York Center
Fri 07:16:19 AM 41.6661 -76.1522 291° West 334 384 36,000  Level New York Center
Fri 07:17:19 AM 41.6983 -76.2686 290° West 334 384 36,000  Level New York Center
Fri 07:18:19 AM 41.7303 -76.3825 291° West 334 384 36,000  Level New York Center
Fri 07:19:19 AM 41.7661 -76.5081 291° West 334 384 36,000  Level New York Center
Fri 07:20:19 AM 41.7978 -76.6247 290° West 334 384 36,000  Level New York Center
Fri 07:22:05 AM 41.8464 -76.8031 290° West 329 379 36,000  Level Cleveland Center
Fri 07:23:06 AM 41.8839 -76.9408 290° West 329 379 36,000  Level Cleveland Center
Fri 07:24:08 AM 41.9156 -77.0547 291° West 328 377 36,000  Level Cleveland Center
Fri 07:25:09 AM 41.9467 -77.1694 290° West 328 377 36,000  Level Cleveland Center
Fri 07:26:10 AM 41.9769 -77.2828 290° West 326 375 36,000  Level Cleveland Center
Fri 07:27:12 AM 42.0075 -77.3958 290° West 326 375 36,000  Level Cleveland Center
Fri 07:28:13 AM 42.0372 -77.5086 290° West 324 373 36,000  Level Cleveland Center
Fri 07:29:15 AM 42.0681 -77.6211 290° West 322 371 36,000  Level Cleveland Center
Fri 07:30:16 AM 42.0981 -77.7333 290° West 321 369 36,000  Level Cleveland Center
Fri 07:31:18 AM 42.1289 -77.8469 290° West 321 369 36,000  Level Cleveland Center
Fri 07:32:19 AM 42.1586 -77.9597 290° West 321 369 36,000  Level Cleveland Center
Fri 07:33:21 AM 42.1947 -78.0922 290° West 317 365 36,000  Level Cleveland Center
Fri 07:34:22 AM 42.2231 -78.2022 289° West 313 360 36,000  Level Cleveland Center
Fri 07:35:24 AM 42.2514 -78.3103 290° West 310 357 36,000  Level Cleveland Center
Fri 07:36:26 AM 42.2775 -78.4181 288° West 304 350 36,000  Level Cleveland Center
Fri 07:37:27 AM 42.3050 -78.5258 289° West 304 350 36,000  Level Cleveland Center
Fri 07:38:29 AM 42.3319 -78.6336 289° West 304 350 36,000  Level Cleveland Center
Fri 07:39:30 AM 42.3583 -78.7433 288° West 304 350 36,000  Level Cleveland Center
Fri 07:40:32 AM 42.3856 -78.8528 289° West 305 351 36,000  Level Cleveland Center
Fri 07:41:34 AM 42.4131 -78.9658 288° West 314 361 36,000  Level Cleveland Center
Fri 07:42:36 AM 42.4447 -79.0992 288° West 314 361 36,000  Level Cleveland Center
Fri 07:43:37 AM 42.4736 -79.2111 289° West 317 365 36,000  Level Cleveland Center
Fri 07:44:39 AM 42.5017 -79.3247 289° West 317 365 36,000  Level Cleveland Center
Fri 07:45:41 AM 42.5300 -79.4453 288° West 319 367 36,000  Level Cleveland Center
Fri 07:46:43 AM 42.5561 -79.5564 288° West 324 373 36,000  Level Cleveland Center
Fri 07:47:44 AM 42.5856 -79.6722 289° West 325 374 36,000  Level Cleveland Center
Fri 07:48:46 AM 42.6131 -79.8144 285° West 325 374 36,000  Level Cleveland Center
Fri 07:49:48 AM 42.6186 -79.9358 274° West 324 373 36,000  Level Cleveland Center
Fri 07:50:50 AM 42.6214 -80.0497 272° West 324 373 36,000  Level Cleveland Center
Fri 07:51:51 AM 42.6278 -80.1722 274° West 322 371 36,000  Level Cleveland Center
Fri 07:52:53 AM 42.6325 -80.2933 273° West 320 368 36,000  Level Cleveland Center
Fri 07:53:55 AM 42.6386 -80.4311 273° West 316 364 36,000  Level Cleveland Center
Fri 07:54:57 AM 42.6425 -80.5503 273° West 315 362 36,000  Level Cleveland Center
Fri 07:55:59 AM 42.6478 -80.6728 273° West 311 358 36,000  Level Cleveland Center
Fri 07:57:00 AM 42.6519 -80.7889 273° West 317 365 36,000  Level Cleveland Center
Fri 07:58:02 AM 42.6558 -80.9050 273° West 312 359 36,000  Level Cleveland Center
Fri 07:59:04 AM 42.6589 -81.0219 272° West 311 358 36,000  Level Cleveland Center
Fri 08:00:06 AM 42.6617 -81.1367 272° West 305 351 36,000  Level Cleveland Center
Fri 08:01:07 AM 42.6656 -81.2514 273° West 304 350 36,000  Level Cleveland Center
Fri 08:02:09 AM 42.6803 -81.3831 279° West 300 345 36,000  Level Cleveland Center
Fri 08:03:11 AM 42.6917 -81.4958 278° West 300 345 36,000  Level Cleveland Center
Fri 08:04:13 AM 42.7039 -81.6072 279° West 299 344 36,000  Level Cleveland Center
Fri 08:05:14 AM 42.7169 -81.7192 279° West 297 342 36,000  Level Cleveland Center
Fri 08:06:16 AM 42.7286 -81.8239 279° West 293 337 36,000  Level Cleveland Center
Fri 08:07:18 AM 42.7406 -81.9350 278° West 294 338 36,000  Level Cleveland Center
Fri 08:08:20 AM 42.7536 -82.0450 279° West 297 342 36,000  Level Cleveland Center
Fri 08:09:21 AM 42.7692 -82.1797 279° West 299 344 36,000  Level Cleveland Center
Fri 08:10:23 AM 42.7814 -82.2917 278° West 300 345 36,000  Level Cleveland Center
Fri 08:11:25 AM 42.7942 -82.4053 279° West 303 349 36,000  Level Cleveland Center
Fri 08:12:27 AM 42.8058 -82.5178 278° West 304 350 36,000  Level Cleveland Center
Fri 08:13:29 AM 42.8197 -82.6306 280° West 304 350 36,000  Level Cleveland Center
Fri 08:14:30 AM 42.8361 -82.7450 281° West 309 356 36,000  Level Cleveland Center
Fri 08:15:32 AM 42.8547 -82.8819 281° West 308 354 36,000  Level Cleveland Center
Fri 08:16:34 AM 42.8692 -82.9969 280° West 309 356 36,000  Level Cleveland Center
Fri 08:17:36 AM 42.8833 -83.1106 280° West 309 356 36,000  Level Cleveland Center
Fri 08:18:38 AM 42.8989 -83.2250 281° West 309 356 36,000  Level Cleveland Center
Fri 08:19:39 AM 42.9139 -83.3400 280° West 309 356 36,000  Level Cleveland Center
Fri 08:20:41 AM 42.9294 -83.4542 281° West 309 356 36,000  Level Cleveland Center
Fri 08:21:43 AM 42.9486 -83.5953 281° West 313 360 36,000  Level Cleveland Center
Fri 08:22:45 AM 42.9642 -83.7128 280° West 314 361 36,000  Level Cleveland Center
Fri 08:23:46 AM 42.9981 -83.8267 292° West 326 375 36,000  Level Cleveland Center
Fri 08:24:48 AM 43.0417 -83.9378 298° West 331 381 36,000  Level Cleveland Center
Fri 08:25:50 AM 43.0836 -84.0489 297° West 331 381 36,000  Level Cleveland Center
Fri 08:26:52 AM 43.1328 -84.1794 297° West 332 382 36,000  Level Cleveland Center
Fri 08:27:54 AM 43.1767 -84.2950 298° West 332 382 36,000  Level Cleveland Center
Fri 08:28:53 AM 43.2175 -84.4019 298° West 332 382 36,000  Level Chicago Center
Fri 08:29:55 AM 43.2511 -84.5192 292° West 334 384 36,000  Level Chicago Center
Fri 08:30:56 AM 43.2714 -84.6378 283° West 324 373 36,000  Level Chicago Center
Fri 08:31:58 AM 43.2925 -84.7581 284° West 328 377 36,000  Level Chicago Center
Fri 08:32:59 AM 43.3139 -84.8783 284° West 325 374 36,000  Level Chicago Center
Fri 08:34:01 AM 43.3336 -84.9992 283° West 327 376 36,000  Level Chicago Center
Fri 08:35:02 AM 43.3544 -85.1197 283° West 326 375 36,000  Level Chicago Center
Fri 08:36:04 AM 43.3783 -85.2636 283° West 325 374 36,000  Level Chicago Center
Fri 08:37:05 AM 43.3981 -85.3853 283° West 327 376 36,000  Level Chicago Center
Fri 08:38:07 AM 43.4186 -85.5050 283° West 326 375 36,000  Level Chicago Center
Fri 08:39:08 AM 43.4386 -85.6267 283° West 328 377 36,000  Level Chicago Center
Fri 08:40:10 AM 43.4589 -85.7481 283° West 329 379 36,000  Level Chicago Center
Fri 08:41:11 AM 43.4781 -85.8692 282° West 328 377 36,000  Level Chicago Center
Fri 08:43:20 AM 43.4961 -86.1364 275° West 325 374 36,000  Level Cleveland Center
Fri 08:44:22 AM 43.4922 -86.2586 268° West 325 374 36,000  Level Cleveland Center
Fri 08:45:17 AM 43.4889 -86.3789 268° West 321 369 36,000  Level Chicago Center
Fri 08:46:18 AM 43.4858 -86.5006 268° West 321 369 36,000  Level Chicago Center
Fri 08:47:20 AM 43.4822 -86.6222 268° West 320 368 36,000  Level Chicago Center
Fri 08:48:21 AM 43.4783 -86.7425 267° West 318 366 36,000  Level Chicago Center
Fri 08:49:23 AM 43.4742 -86.8633 267° West 317 365 36,000  Level Chicago Center
Fri 08:50:24 AM 43.4686 -87.0092 267° West 319 367 36,000  Level Chicago Center
Fri 08:51:25 AM 43.4650 -87.1311 268° West 319 367 36,000  Level Chicago Center
Fri 08:52:27 AM 43.4600 -87.2528 267° West 320 368 36,000  Level Chicago Center
Fri 08:53:28 AM 43.4550 -87.3875 267° West 320 368 36,000  Level Chicago Center
Fri 08:54:30 AM 43.4611 -87.5106 274° West 321 369 36,000  Level Chicago Center
Fri 08:55:31 AM 43.4714 -87.6344 277° West 325 374 36,000  Level Chicago Center
Fri 08:56:33 AM 43.4789 -87.7569 275° West 323 372 36,000  Level Chicago Center
Fri 08:57:34 AM 43.4864 -87.8803 275° West 324 373 36,000  Level Chicago Center
Fri 08:58:36 AM 43.4947 -88.0028 275° West 323 372 36,000  Level Chicago Center
Fri 08:59:37 AM 43.5019 -88.1261 275° West 324 373 36,000  Level Chicago Center
Fri 09:00:38 AM 43.5106 -88.2506 275° West 328 377 36,000  Level Chicago Center
Fri 09:01:40 AM 43.5206 -88.3975 275° West 327 376 36,000 -49 Level Chicago Center
Fri 09:02:41 AM 43.5292 -88.5106 276° West 327 376 35,900  Descending Chicago Center
Fri 09:03:43 AM 43.5364 -88.6414 274° West 330 380 36,000 49 Climbing Chicago Center
Fri 09:04:44 AM 43.5456 -88.7678 276° West 333 383 36,000  Level Chicago Center
Fri 09:05:46 AM 43.5531 -88.8933 275° West 332 382 36,000  Level Chicago Center
Fri 09:06:47 AM 43.5625 -89.0444 275° West 332 382 36,000  Level Chicago Center
Fri 09:07:49 AM 43.5697 -89.1722 275° West 335 386 36,000  Level Chicago Center
Fri 09:08:50 AM 43.5775 -89.2992 275° West 337 388 36,000  Level Chicago Center
Fri 09:09:52 AM 43.5850 -89.4256 275° West 333 383 36,000  Level Chicago Center
Fri 09:10:53 AM 43.5936 -89.5519 275° West 335 386 36,000  Level Chicago Center
Fri 09:11:55 AM 43.5992 -89.6789 274° West 335 386 36,000  Level Chicago Center
Fri 09:12:56 AM 43.6072 -89.8053 275° West 333 383 36,000  Level Chicago Center
Fri 09:13:58 AM 43.6125 -89.9328 273° West 334 384 36,000  Level Chicago Center
Fri 09:14:59 AM 43.6214 -90.0858 275° West 334 384 36,000  Level Chicago Center
Fri 09:16:01 AM 43.6269 -90.2128 274° West 333 383 36,000  Level Chicago Center
Fri 09:17:02 AM 43.6342 -90.3319 275° West 335 386 36,000  Level Chicago Center
Fri 09:18:04 AM 43.6389 -90.4597 273° West 336 387 36,000  Level Chicago Center
Fri 09:19:06 AM 43.6469 -90.5883 275° West 338 389 36,000  Level Chicago Center
Fri 09:20:07 AM 43.6533 -90.7428 273° West 338 389 36,000  Level Chicago Center
Fri 09:21:09 AM 43.6592 -90.8719 274° West 339 390 36,000  Level Chicago Center
Fri 09:22:10 AM 43.6656 -91.0003 274° West 339 390 36,000  Level Chicago Center
Fri 09:23:12 AM 43.6719 -91.1322 274° West 345 397 36,000  Level Chicago Center
Fri 09:24:14 AM 43.6772 -91.2639 273° West 347 399 36,000  Level Chicago Center
Fri 09:25:15 AM 43.6819 -91.3956 273° West 347 399 36,000  Level Chicago Center
Fri 09:26:23 AM 43.6889 -91.5542 274° West 349 402 36,000  Level Minneapolis Center
Fri 09:27:24 AM 43.6947 -91.6886 273° West 351 404 36,000  Level Minneapolis Center
Fri 09:28:25 AM 43.6992 -91.8211 273° West 349 402 36,000  Level Minneapolis Center
Fri 09:29:26 AM 43.7042 -91.9544 273° West 349 402 36,000  Level Minneapolis Center
Fri 09:30:27 AM 43.7094 -92.1158 273° West 352 405 36,000  Level Minneapolis Center
Fri 09:31:29 AM 43.7150 -92.2492 273° West 352 405 36,000  Level Minneapolis Center
Fri 09:32:30 AM 43.7192 -92.3819 273° West 349 402 36,000  Level Minneapolis Center
Fri 09:33:31 AM 43.7233 -92.5158 273° West 352 405 36,000  Level Minneapolis Center
Fri 09:34:32 AM 43.7269 -92.6503 272° West 352 405 36,000  Level Minneapolis Center
Fri 09:35:34 AM 43.7303 -92.7842 272° West 351 404 36,000  Level Minneapolis Center
Fri 09:36:35 AM 43.7333 -92.9203 272° West 355 409 36,000  Level Minneapolis Center
Fri 09:37:36 AM 43.7378 -93.0542 273° West 353 406 36,000  Level Minneapolis Center
Fri 09:38:37 AM 43.7433 -93.2019 273° West 351 404 36,000  Level Minneapolis Center
Fri 09:39:38 AM 43.7464 -93.3369 272° West 351 404 36,000  Level Minneapolis Center
Fri 09:40:40 AM 43.7492 -93.4700 272° West 347 399 36,000  Level Minneapolis Center
Fri 09:41:41 AM 43.7467 -93.6056 269° West 350 403 36,000  Level Minneapolis Center
Fri 09:42:42 AM 43.7411 -93.7397 267° West 349 402 36,000  Level Minneapolis Center
Fri 09:43:43 AM 43.7356 -93.8731 267° West 349 402 36,000  Level Minneapolis Center
Fri 09:44:44 AM 43.7297 -94.0350 267° West 351 404 36,000  Level Minneapolis Center
Fri 09:45:45 AM 43.7233 -94.1700 266° West 352 405 36,000  Level Minneapolis Center
Fri 09:46:47 AM 43.7178 -94.2994 267° West 354 407 36,000  Level Minneapolis Center
Fri 09:47:48 AM 43.7133 -94.4342 267° West 352 405 36,000  Level Minneapolis Center
Fri 09:48:49 AM 43.7081 -94.5697 267° West 353 406 36,000  Level Minneapolis Center
Fri 09:49:50 AM 43.7025 -94.7058 267° West 355 409 36,000  Level Minneapolis Center
Fri 09:50:52 AM 43.6956 -94.8417 266° West 355 409 36,000  Level Minneapolis Center
Fri 09:51:53 AM 43.6903 -94.9789 267° West 357 411 36,000  Level Minneapolis Center
Fri 09:52:54 AM 43.6806 -95.1408 265° West 354 407 36,000  Level Minneapolis Center
Fri 09:53:55 AM 43.6722 -95.2772 265° West 355 409 36,000  Level Minneapolis Center
Fri 09:54:57 AM 43.6650 -95.4142 266° West 357 411 36,000  Level Minneapolis Center
Fri 09:55:58 AM 43.6572 -95.5519 266° West 359 413 36,000  Level Minneapolis Center
Fri 09:56:59 AM 43.6508 -95.6897 266° West 359 413 36,000  Level Minneapolis Center
Fri 09:58:00 AM 43.6425 -95.8269 265° West 359 413 36,000  Level Minneapolis Center
Fri 09:59:02 AM 43.6347 -95.9656 266° West 360 414 36,000  Level Minneapolis Center
Fri 10:00:05 AM 43.6272 -96.1047 266° West 362 417 36,000 48 Level Minneapolis Center
Fri 10:01:06 AM 43.6183 -96.2436 265° West 362 417 36,100 344 Climbing Minneapolis Center
Fri 10:02:07 AM 43.6108 -96.3808 266° West 359 413 36,700 927 Climbing Minneapolis Center
Fri 10:03:09 AM 43.6003 -96.5472 265° West 362 417 38,000 634 Climbing Minneapolis Center
Fri 10:04:10 AM 43.5919 -96.6822 265° West 355 409 38,000  Level Minneapolis Center
Fri 10:05:11 AM 43.5825 -96.8164 264° West 352 405 38,000  Level Minneapolis Center
Fri 10:06:13 AM 43.5728 -96.9536 264° West 356 410 38,000  Level Minneapolis Center
Fri 10:07:14 AM 43.5633 -97.0931 265° West 363 418 38,000  Level Minneapolis Center
Fri 10:08:15 AM 43.5542 -97.2339 265° West 367 422 38,000  Level Minneapolis Center
Fri 10:09:17 AM 43.5453 -97.3753 265° West 369 425 38,000  Level Minneapolis Center
Fri 10:10:18 AM 43.5350 -97.5158 264° West 370 426 38,000  Level Minneapolis Center
Fri 10:11:19 AM 43.5250 -97.6558 264° West 369 425 38,000  Level Minneapolis Center
Fri 10:12:20 AM 43.5144 -97.7958 264° West 368 423 38,000  Level Minneapolis Center
Fri 10:13:22 AM 43.5014 -97.9622 264° West 366 421 38,000  Level Minneapolis Center
Fri 10:14:23 AM 43.4850 -98.1008 261° West 366 421 38,000  Level Minneapolis Center
Fri 10:15:24 AM 43.4633 -98.2381 258° West 368 423 38,000  Level Minneapolis Center
Fri 10:16:26 AM 43.4425 -98.3750 258° West 367 422 38,000  Level Minneapolis Center
Fri 10:17:27 AM 43.4228 -98.5133 259° West 369 425 38,000  Level Minneapolis Center
Fri 10:18:29 AM 43.4014 -98.6514 258° West 369 425 38,000  Level Minneapolis Center
Fri 10:19:30 AM 43.3800 -98.7892 258° West 370 426 38,000  Level Minneapolis Center
Fri 10:20:32 AM 43.3589 -98.9294 258° West 374 430 38,000  Level Minneapolis Center
Fri 10:21:33 AM 43.3339 -99.0844 258° West 375 432 38,000  Level Minneapolis Center
Fri 10:22:35 AM 43.3117 -99.2242 258° West 376 433 38,000  Level Minneapolis Center
Fri 10:23:36 AM 43.2897 -99.3642 258° West 376 433 38,000  Level Minneapolis Center
Fri 10:24:37 AM 43.2669 -99.5061 258° West 379 436 38,000  Level Minneapolis Center
Fri 10:25:39 AM 43.2444 -99.6472 258° West 380 437 38,000  Level Minneapolis Center
Fri 10:26:41 AM 43.2208 -99.7917 257° West 386 444 38,000  Level Minneapolis Center
Fri 10:27:42 AM 43.1939 -99.9608 258° West 382 440 38,000  Level Minneapolis Center
Fri 10:28:44 AM 43.1686 -100.1042 256° West 384 442 38,000  Level Minneapolis Center
Fri 10:29:45 AM 43.1442 -100.2450 257° West 383 441 38,000  Level Minneapolis Center
Fri 10:30:43 AM 43.1214 -100.3781 257° West 387 445 38,000  Level Denver Center
Fri 10:31:45 AM 43.0950 -100.5347 257° West 383 441 38,000  Level Denver Center
Fri 10:32:46 AM 43.0722 -100.6731 257° West 388 447 38,000  Level Denver Center
Fri 10:33:48 AM 43.0481 -100.8092 256° West 386 444 38,000  Level Denver Center
Fri 10:35:01 AM 43.0203 -100.9694 257° West 387 445 38,000  Level Denver Center
Fri 10:36:03 AM 42.9878 -101.1525 256° West 388 447 38,000  Level Denver Center
Fri 10:37:04 AM 42.9639 -101.2897 257° West 389 448 38,000  Level Denver Center
Fri 10:38:06 AM 42.9397 -101.4258 256° West 388 447 38,000  Level Denver Center
Fri 10:39:08 AM 42.9103 -101.5842 256° West 387 445 38,000  Level Denver Center
Fri 10:40:09 AM 42.8850 -101.7222 256° West 391 450 38,000  Level Denver Center
Fri 10:41:11 AM 42.8558 -101.8839 256° West 387 445 38,000  Level Denver Center
Fri 10:42:12 AM 42.8308 -102.0211 256° West 390 449 38,000  Level Denver Center
Fri 10:43:14 AM 42.8044 -102.1567 255° West 388 447 38,000  Level Denver Center
Fri 10:44:16 AM 42.7594 -102.3097 248° West 386 444 38,000  Level Denver Center
Fri 10:45:17 AM 42.7167 -102.4414 246° West 395 455 38,000  Level Denver Center
Fri 10:46:19 AM 42.6683 -102.5933 247° West 393 452 38,000  Level Denver Center
Fri 10:47:21 AM 42.6264 -102.7225 246° West 392 451 38,000  Level Denver Center
Fri 10:48:22 AM 42.5767 -102.8753 246° West 394 453 38,000  Level Denver Center
Fri 10:49:24 AM 42.5342 -103.0061 246° West 396 456 38,000  Level Denver Center
Fri 10:50:26 AM 42.4906 -103.1353 245° Southwest 394 453 38,000  Level Denver Center
Fri 10:51:27 AM 42.4403 -103.2867 246° West 394 453 38,000  Level Denver Center
Fri 10:52:29 AM 42.3992 -103.4178 247° West 395 455 38,000  Level Denver Center
Fri 10:53:31 AM 42.3486 -103.5686 246° West 395 455 38,000  Level Denver Center
Fri 10:54:33 AM 42.3064 -103.6972 246° West 391 450 38,000  Level Denver Center
Fri 10:55:34 AM 42.2558 -103.8483 246° West 394 453 38,000  Level Denver Center
Fri 10:56:36 AM 42.2114 -103.9764 245° Southwest 392 451 38,000  Level Denver Center
Fri 10:57:38 AM 42.1681 -104.1061 246° West 395 455 38,000  Level Denver Center
Fri 10:58:40 AM 42.1156 -104.2564 245° Southwest 396 456 38,000  Level Denver Center
Fri 10:59:42 AM 42.0711 -104.3847 245° Southwest 394 453 38,000  Level Denver Center
Fri 11:00:43 AM 42.0200 -104.5344 245° Southwest 393 452 38,000  Level Denver Center
Fri 11:01:45 AM 41.9764 -104.6614 245° Southwest 389 448 38,000  Level Denver Center
Fri 11:02:47 AM 41.9247 -104.8106 245° Southwest 393 452 38,000  Level Denver Center
Fri 11:03:49 AM 41.8808 -104.9383 245° Southwest 394 453 38,000  Level Denver Center
Fri 11:04:51 AM 41.8356 -105.0661 245° Southwest 395 455 38,000  Level Denver Center
Fri 11:05:53 AM 41.7833 -105.2119 244° Southwest 391 450 38,000  Level Denver Center
Fri 11:06:55 AM 41.7381 -105.3394 245° Southwest 394 453 38,000  Level Denver Center
Fri 11:07:57 AM 41.6856 -105.4864 244° Southwest 391 450 38,000  Level Denver Center
Fri 11:08:59 AM 41.6403 -105.6119 244° Southwest 392 451 38,000  Level Denver Center
Fri 11:10:01 AM 41.5875 -105.7583 244° Southwest 392 451 38,000  Level Denver Center
Fri 11:11:03 AM 41.5411 -105.8844 244° Southwest 394 453 38,000  Level Denver Center
Fri 11:12:05 AM 41.4903 -106.0328 245° Southwest 393 452 38,000  Level Denver Center
Fri 11:13:07 AM 41.4592 -106.1675 253° West 396 456 38,000  Level Denver Center
Fri 11:14:09 AM 41.4222 -106.3239 253° West 397 457 38,000  Level Denver Center
Fri 11:15:11 AM 41.3883 -106.4583 251° West 398 458 38,000  Level Denver Center
Fri 11:16:13 AM 41.3539 -106.6028 252° West 400 460 38,000  Level Denver Center
Fri 11:17:15 AM 41.3189 -106.7364 251° West 400 460 38,000  Level Denver Center
Fri 11:18:18 AM 41.2817 -106.8958 253° West 404 465 38,000  Level Denver Center
Fri 11:19:20 AM 41.2461 -107.0306 251° West 404 465 38,000  Level Denver Center
Fri 11:20:22 AM 41.2064 -107.1881 252° West 403 464 38,000  Level Denver Center
Fri 11:21:24 AM 41.1731 -107.3225 252° West 401 461 38,000  Level Denver Center
Fri 11:22:26 AM 41.1336 -107.4792 252° West 401 461 38,000  Level Denver Center
Fri 11:23:28 AM 41.0997 -107.6125 251° West 400 460 38,000  Level Denver Center
Fri 11:24:30 AM 41.0597 -107.7692 251° West 401 461 38,000  Level Denver Center
Fri 11:25:32 AM 41.0253 -107.9031 251° West 401 461 38,000  Level Denver Center
Fri 11:26:34 AM 40.9794 -108.0578 249° West 403 464 38,000  Level Denver Center
Fri 11:27:36 AM 40.9300 -108.1850 243° Southwest 405 466 38,000  Level Denver Center
Fri 11:28:38 AM 40.8733 -108.3333 243° Southwest 405 466 38,000  Level Denver Center
Fri 11:29:40 AM 40.8258 -108.4619 244° Southwest 406 467 38,000  Level Denver Center
Fri 11:31:44 AM 40.7181 -108.7417 243° Southwest 405 466 38,000  Level Denver Center
Fri 11:32:46 AM 40.6683 -108.8681 243° Southwest 407 468 38,000  Level Denver Center
Fri 11:33:49 AM 40.6108 -109.0161 243° Southwest 406 467 38,000  Level Denver Center
Fri 11:34:51 AM 40.5614 -109.1431 243° Southwest 407 468 38,000  Level Denver Center
Fri 11:35:53 AM 40.5042 -109.2892 243° Southwest 406 467 38,000  Level Denver Center
Fri 11:36:55 AM 40.4569 -109.4169 244° Southwest 407 468 38,000  Level Denver Center
Fri 11:37:57 AM 40.4044 -109.5675 245° Southwest 407 468 38,000  Level Denver Center
Fri 11:38:59 AM 40.3589 -109.6969 245° Southwest 408 470 38,000  Level Denver Center
Fri 11:40:01 AM 40.3042 -109.8481 245° Southwest 410 472 38,000  Level Denver Center
Fri 11:41:03 AM 40.2572 -109.9767 244° Southwest 411 473 38,000  Level Denver Center
Fri 11:42:05 AM 40.2028 -110.1264 245° Southwest 409 471 38,000  Level Denver Center
Fri 11:43:24 AM 40.1403 -110.2986 245° Southwest 410 472 38,000  Level Salt Lake Center
Fri 11:44:26 AM 40.0942 -110.4278 245° Southwest 410 472 38,000  Level Salt Lake Center
Fri 11:45:28 AM 40.0389 -110.5783 244° Southwest 412 474 38,000  Level Salt Lake Center
Fri 11:46:30 AM 39.9908 -110.7092 244° Southwest 416 479 38,000  Level Salt Lake Center
Fri 11:47:32 AM 39.9342 -110.8594 244° Southwest 414 476 38,000  Level Salt Lake Center
Fri 11:48:34 AM 39.8861 -110.9892 244° Southwest 416 479 38,000  Level Salt Lake Center
Fri 11:49:36 AM 39.8300 -111.1406 244° Southwest 415 478 38,000  Level Salt Lake Center
Fri 11:50:37 AM 39.7806 -111.2706 244° Southwest 419 482 38,000  Level Salt Lake Center
Fri 11:51:39 AM 39.7286 -111.4036 243° Southwest 418 481 38,000  Level Salt Lake Center
Fri 11:52:41 AM 39.6775 -111.5397 244° Southwest 420 483 38,000  Level Salt Lake Center
Fri 11:53:43 AM 39.6147 -111.7017 243° Southwest 417 480 38,000  Level Salt Lake Center
Fri 11:54:45 AM 39.5633 -111.8353 244° Southwest 415 478 38,000  Level Salt Lake Center
Fri 11:55:47 AM 39.5114 -111.9700 243° Southwest 416 479 38,000  Level Salt Lake Center
Fri 11:56:49 AM 39.4592 -112.1044 243° Southwest 416 479 38,000  Level Salt Lake Center
Fri 11:57:51 AM 39.4078 -112.2372 243° Southwest 413 475 38,000  Level Salt Lake Center
Fri 11:58:53 AM 39.3572 -112.3706 244° Southwest 413 475 38,000  Level Salt Lake Center
Fri 11:59:55 AM 39.3061 -112.4969 242° Southwest 404 465 38,000  Level Salt Lake Center
Fri 12:00:57 PM 39.2689 -112.6317 250° West 399 459 38,000  Level Salt Lake Center
Fri 12:01:59 PM 39.2392 -112.7867 256° West 402 463 38,000  Level Salt Lake Center
Fri 12:03:00 PM 39.2072 -112.9294 254° West 414 476 38,000  Level Salt Lake Center
Fri 12:04:02 PM 39.1686 -113.0936 253° West 404 465 38,000  Level Salt Lake Center
Fri 12:05:04 PM 39.1369 -113.2317 254° West 402 463 38,000  Level Salt Lake Center
Fri 12:06:06 PM 39.1036 -113.3744 253° West 412 474 38,000  Level Salt Lake Center
Fri 12:07:08 PM 39.0717 -113.5153 254° West 412 474 38,000  Level Salt Lake Center
Fri 12:08:10 PM 39.0392 -113.6567 254° West 414 476 38,000  Level Salt Lake Center
Fri 12:09:12 PM 39.0053 -113.7981 253° West 415 478 38,000  Level Salt Lake Center
Fri 12:10:14 PM 38.9672 -113.9606 253° West 401 461 38,000  Level Salt Lake Center
Fri 12:11:16 PM 38.9350 -114.0950 253° West 396 456 38,000  Level Salt Lake Center
Fri 12:12:18 PM 38.9019 -114.2308 253° West 399 459 38,000  Level Salt Lake Center
Fri 12:13:20 PM 38.8692 -114.3681 253° West 403 464 38,000  Level Salt Lake Center
Fri 12:14:22 PM 38.8358 -114.5064 253° West 406 467 38,000  Level Salt Lake Center
Fri 12:15:24 PM 38.7950 -114.6711 252° West 407 468 38,000  Level Salt Lake Center
Fri 12:16:26 PM 38.7606 -114.8089 252° West 407 468 38,000  Level Salt Lake Center
Fri 12:17:28 PM 38.7261 -114.9461 252° West 407 468 38,000  Level Salt Lake Center
Fri 12:18:30 PM 38.7008 -115.0856 257° West 407 468 38,000  Level Salt Lake Center
Fri 12:19:32 PM 38.7422 -115.2133 293° West 400 460 38,000  Level Salt Lake Center
Fri 12:20:33 PM 38.8158 -115.3203 311° West 399 459 38,000  Level Salt Lake Center
Fri 12:21:36 PM 38.8714 -115.4611 297° West 391 450 38,000  Level Salt Lake Center
Fri 12:22:37 PM 38.8397 -115.5939 253° West 391 450 38,000  Level Salt Lake Center
Fri 12:23:39 PM 38.7903 -115.7208 243° Southwest 396 456 38,000  Level Salt Lake Center
Fri 12:24:41 PM 38.7431 -115.8481 245° Southwest 395 455 38,000  Level Salt Lake Center
Fri 12:25:43 PM 38.6950 -115.9750 244° Southwest 395 455 38,000  Level Salt Lake Center
Fri 12:26:45 PM 38.6372 -116.1269 244° Southwest 396 456 38,000  Level Salt Lake Center
Fri 12:27:47 PM 38.5897 -116.2553 245° Southwest 398 458 38,000  Level Salt Lake Center
Fri 12:28:49 PM 38.5422 -116.3839 245° Southwest 400 460 38,000  Level Salt Lake Center
Fri 12:29:51 PM 38.4936 -116.5117 244° Southwest 400 460 38,000  Level Salt Lake Center
Fri 12:30:54 PM 38.4444 -116.6389 244° Southwest 401 461 38,000  Level Salt Lake Center
Fri 12:31:47 PM 38.3964 -116.7669 244° Southwest 402 463 38,000  Level Oakland Center
Fri 12:32:49 PM 38.3467 -116.8942 244° Southwest 401 461 38,000  Level Oakland Center
Fri 12:33:50 PM 38.2978 -117.0208 244° Southwest 402 463 38,000  Level Oakland Center
Fri 12:34:52 PM 38.2489 -117.1467 244° Southwest 402 463 38,000  Level Oakland Center
Fri 12:35:53 PM 38.2008 -117.2697 244° Southwest 404 465 38,000  Level Oakland Center
Fri 12:36:55 PM 38.1450 -117.4114 243° Southwest 401 461 38,000  Level Oakland Center
Fri 12:37:56 PM 38.0914 -117.5472 243° Southwest 405 466 38,000  Level Oakland Center
Fri 12:38:58 PM 38.0403 -117.6744 243° Southwest 405 466 38,000  Level Oakland Center
Fri 12:39:59 PM 37.9992 -117.8078 249° West 409 471 38,000  Level Oakland Center
Fri 12:41:01 PM 37.9839 -117.9483 262° West 402 463 38,000  Level Oakland Center
Fri 12:42:02 PM 37.9692 -118.0897 263° West 404 465 38,000  Level Oakland Center
Fri 12:43:04 PM 37.9533 -118.2289 262° West 400 460 38,000  Level Oakland Center
Fri 12:44:05 PM 37.9397 -118.3606 263° West 383 441 38,000  Level Oakland Center
Fri 12:45:06 PM 37.9250 -118.4914 262° West 377 434 38,000  Level Oakland Center
Fri 12:46:08 PM 37.9078 -118.6503 262° West 379 436 38,000  Level Oakland Center
Fri 12:47:09 PM 37.8925 -118.7853 262° West 386 444 38,000  Level Oakland Center
Fri 12:48:11 PM 37.8775 -118.9181 262° West 382 440 38,000  Level Oakland Center
Fri 12:49:12 PM 37.8631 -119.0428 262° West 384 442 38,000  Level Oakland Center
Fri 12:50:14 PM 37.8483 -119.1767 262° West 384 442 38,000  Level Oakland Center
Fri 12:51:15 PM 37.8319 -119.3086 261° West 382 440 38,000  Level Oakland Center
Fri 12:52:16 PM 37.8133 -119.4683 262° West 382 440 38,000  Level Oakland Center
Fri 12:53:18 PM 37.7981 -119.5997 262° West 379 436 38,000  Level Oakland Center
Fri 12:54:19 PM 37.7822 -119.7319 261° West 379 436 38,000  Level Oakland Center
Fri 12:55:21 PM 37.7658 -119.8639 261° West 379 436 38,000 -732 Level Oakland Center
Fri 12:56:22 PM 37.7494 -119.9944 261° West 377 434 36,500 -1,574 Descending Oakland Center
Fri 12:57:23 PM 37.7344 -120.1222 262° West 370 426 34,800 -1,902 Descending Oakland Center
Fri 12:58:25 PM 37.7183 -120.2464 261° West 363 418 32,600 -1,463 Descending Oakland Center
Fri 12:59:26 PM 37.7033 -120.3711 261° West 360 414 31,800 -1,512 Descending Oakland Center
Fri 01:00:28 PM 37.6856 -120.5011 260° West 368 423 29,500 -2,146 Descending Oakland Center
Fri 01:01:29 PM 37.6683 -120.6278 260° West 368 423 27,400 -2,754 Descending Oakland Center
Fri 01:02:30 PM 37.6511 -120.7725 261° West 355 409 23,900 -3,073 Descending Oakland Center
Fri 01:03:32 PM 37.6356 -120.8922 261° West 348 400 21,100 -2,214 Descending Oakland Center
Fri 01:04:13 PM 37.6333 -120.9667 268° West 355 409 20,100 -1,307 Descending Northern Cal TRACON
Fri 01:05:13 PM 37.6167 -121.1000 261° West 347 399 18,900 -1,350 Descending Northern Cal TRACON
Fri 01:06:13 PM 37.6000 -121.2167 260° West 354 407 17,400 -2,150 Descending Northern Cal TRACON
Fri 01:07:13 PM 37.5833 -121.3333 260° West 348 400 14,600 -2,550 Descending Northern Cal TRACON
Fri 01:08:13 PM 37.5667 -121.4500 260° West 341 392 12,300 -1,800 Descending Northern Cal TRACON
Fri 01:09:13 PM 37.5500 -121.5667 260° West 315 362 11,000 -600 Descending Northern Cal TRACON
Fri 01:10:13 PM 37.5500 -121.6667 270° West 275 316 11,100 -550 Climbing Northern Cal TRACON
Fri 01:11:13 PM 37.5167 -121.7500 243° Southwest 276 318 9,900 -1,200 Descending Northern Cal TRACON
Fri 01:12:13 PM 37.5000 -121.8500 258° West 275 316 8,700 -1,053 Descending Northern Cal TRACON
Fri 01:13:07 PM 37.4833 -121.9167 253° West 263 303 7,900 -900 Descending Northern Cal TRACON
Fri 01:14:13 PM 37.5000 -122.0167 282° West 228 262 6,900 -1,000 Descending Northern Cal TRACON
Fri 01:15:13 PM 37.5167 -122.0833 288° West 181 208 5,800 -1,211 Descending Northern Cal TRACON
Fri 01:16:07 PM 37.5333 -122.1333 293° West 178 205 4,600 -1,299 Descending Northern Cal TRACON
Fri 01:16:50 PM 37.5519 -122.1658 306° West 183 211 3,700 -1,269 Descending Oakland Center
Fri 01:17:51 PM 37.5692 -122.2206 292° West 174 200 2,400 -1,073 Descending Oakland Center
Fri 01:18:53 PM 37.5839 -122.2697 291° West 163 188 1,500 -780 Descending Oakland Center
Fri 01:19:54 PM 37.5933 -122.3131 285° West 144 166 800 -683 Descending Oakland Center
Fri 01:20:56 PM 37.6108 -122.3531 299° West 134 154 100 -677 Descending Oakland Center

Login

Don't have an account? Register now (free) for customized features, flight alerts, and more!